Scf Baltica — A8IA5 — position and weather

sailwx.info

Track history (hours):
 
Tides and Currents Weather Stations Pressure Air Temp Water Temp Dewpoint Dewpoint Depression Visibility Wind Speed Wind Dir Waves Ship Positions

Scf Baltica

Last reported at 2016-Jun-21 22:32 UTC. Time now 2016-Jun-27 04:09 UTC.
Position N 58°45' E 004°17'.

Length 250 m; draft 9 m.

Type: Ship. MMSI: 636012813.

Date/timePositionNaut miles runAvg speedWind from/ knotsBaromVisibWave heightAir tempDewpointWater temp
2016-Jun-21 22:32N 58°45' E 004°17'26211.9
2016-Jun-21 00:32N 54°24' E 004°52'148 8.6
2016-Jun-20 07:18N 52°04' E 003°29'1013.2
2016-Jun-20 06:33N 52°05' E 003°45'10 9.9
2016-Jun-20 05:33N 52°01' E 003°60'4 3.9
2016-Jun-20 04:31N 51°58' E 004°04'0 0.0
2016-Jun-20 03:31N 51°58' E 004°04'0 0.0
2016-Jun-20 02:31N 51°58' E 004°04'0 0.0
2016-Jun-20 01:31N 51°58' E 004°04'0 0.0
2016-Jun-20 00:31N 51°58' E 004°04'0 0.0
2016-Jun-19 23:31N 51°58' E 004°04'0 0.0
2016-Jun-19 22:34N 51°58' E 004°04'0 0.0
2016-Jun-19 21:31N 51°58' E 004°04'0 0.0
2016-Jun-19 20:34N 51°58' E 004°04'0 0.0
2016-Jun-19 19:31N 51°58' E 004°04'0 0.0
2016-Jun-19 18:34N 51°58' E 004°04'0 0.0
2016-Jun-19 17:31N 51°58' E 004°04'0 0.0
2016-Jun-19 16:31N 51°58' E 004°04'0 0.0
2016-Jun-19 15:31N 51°58' E 004°04'0 0.0
2016-Jun-19 14:34N 51°58' E 004°04'0 0.0
2016-Jun-19 13:31N 51°58' E 004°04'0 0.0
2016-Jun-19 12:34N 51°58' E 004°04'0 0.0
2016-Jun-19 11:31N 51°58' E 004°04'0 0.0
2016-Jun-19 10:31N 51°58' E 004°04'0 0.0
2016-Jun-19 09:31N 51°58' E 004°04'0 0.0
2016-Jun-19 08:31N 51°58' E 004°04'0 0.0
2016-Jun-19 07:34N 51°58' E 004°04'0 0.0
2016-Jun-19 06:31N 51°58' E 004°04'0 0.0
2016-Jun-19 05:34N 51°58' E 004°04'0 0.0
2016-Jun-19 04:34N 51°58' E 004°04'0 0.0
2016-Jun-19 03:31N 51°58' E 004°04'1 0.6
2016-Jun-19 02:34N 51°58' E 004°05'6 5.9
2016-Jun-19 01:33N 52°00' E 003°56'8 7.7
2016-Jun-19 00:33N 52°03' E 003°44'6 2.9
2016-Jun-18 22:27N 52°08' E 003°38'0 0.0
2016-Jun-18 15:30N 52°08' E 003°39'0 0.0
2016-Jun-18 12:30N 52°08' E 003°39'0 0.0
2016-Jun-18 06:06N 52°08' E 003°38'0 0.1
2016-Jun-18 03:06N 52°08' E 003°38'0 0.0
2016-Jun-18 00:18N 52°08' E 003°38'0 0.0
2016-Jun-17 23:30N 52°08' E 003°38'0 0.0
2016-Jun-17 13:30N 52°08' E 003°38'0 0.0
2016-Jun-17 12:09N 52°08' E 003°38'0 0.0
2016-Jun-17 11:15N 52°08' E 003°38'0 0.1
2016-Jun-17 08:12N 52°08' E 003°38'0 0.0
2016-Jun-17 03:06N 52°08' E 003°38'0 0.0
2016-Jun-17 02:24N 52°08' E 003°38'0 0.0
2016-Jun-17 01:30N 52°08' E 003°38'0 0.0
2016-Jun-16 22:24N 52°08' E 003°38'0 0.2
2016-Jun-16 21:24N 52°08' E 003°38'0 0.1
2016-Jun-16 19:18N 52°08' E 003°38'0 0.0
2016-Jun-16 18:30N 52°08' E 003°38'0 0.0
2016-Jun-16 17:33N 52°08' E 003°38'0 0.1
2016-Jun-16 14:33N 52°08' E 003°38'0 0.0
2016-Jun-16 13:30N 52°08' E 003°38'0 0.0
2016-Jun-16 12:18N 52°08' E 003°38'0 0.0
2016-Jun-16 11:33N 52°08' E 003°38'0 0.0
2016-Jun-16 10:24N 52°08' E 003°38'0 0.1
2016-Jun-16 08:24N 52°08' E 003°38'0 0.0
2016-Jun-16 07:30N 52°08' E 003°38'0 0.0
2016-Jun-16 04:33N 52°08' E 003°38'0 0.2
2016-Jun-16 03:12N 52°08' E 003°39'0 0.1
2016-Jun-16 02:33N 52°08' E 003°38'0 0.0
2016-Jun-16 01:16N 52°08' E 003°38'0 0.0
2016-Jun-16 00:31N 52°08' E 003°38'0 0.0
2016-Jun-15 22:24N 52°08' E 003°38'0 0.0
2016-Jun-15 21:27N 52°08' E 003°38'0 0.1
2016-Jun-15 18:27N 52°08' E 003°38'0 0.1
2016-Jun-15 15:18N 52°08' E 003°39'0 0.1
2016-Jun-15 13:12N 52°08' E 003°38'0 0.0
2016-Jun-15 12:33N 52°08' E 003°38'0 0.0
2016-Jun-15 10:03N 52°08' E 003°38'0 0.0
2016-Jun-15 09:33N 52°08' E 003°38'0 0.0
2016-Jun-15 03:24N 52°08' E 003°39'0 0.1
2016-Jun-15 02:21N 52°08' E 003°39'0 0.0
2016-Jun-15 01:06N 52°08' E 003°39'0 0.0
2016-Jun-15 00:21N 52°08' E 003°39'0 0.0
2016-Jun-14 23:27N 52°08' E 003°39'0 0.0
2016-Jun-14 22:15N 52°08' E 003°39'0 0.0
2016-Jun-14 21:30N 52°08' E 003°39'0 0.0
2016-Jun-14 19:27N 52°08' E 003°39'0 0.0
2016-Jun-14 18:33N 52°08' E 003°39'0 0.1
2016-Jun-14 16:24N 52°08' E 003°38'0 0.0
2016-Jun-13 23:33N 52°08' E 003°38'0 0.0
2016-Jun-13 15:33N 52°08' E 003°38'0 0.0
2016-Jun-12 16:27N 52°08' E 003°38'0 0.1
2016-Jun-12 11:18N 52°08' E 003°38'0 0.0
2016-Jun-12 10:33N 52°08' E 003°38'0 0.0
2016-Jun-12 09:30N 52°08' E 003°38'0 0.0
2016-Jun-12 08:33N 52°08' E 003°38'0 0.0
2016-Jun-12 07:24N 52°08' E 003°38'0 0.0
2016-Jun-12 06:24N 52°08' E 003°38'0 0.2
2016-Jun-12 04:33N 52°08' E 003°38'2 1.7
2016-Jun-12 03:33N 52°07' E 003°36'  
Track history (hours):
 
Tides and Currents Weather Stations Pressure Air Temp Water Temp Dewpoint Dewpoint Depression Visibility Wind Speed Wind Dir Waves Ship Positions

Scf Baltica

Last reported at 2016-Jun-21 22:32 UTC. Time now 2016-Jun-27 04:09 UTC.
Position N 58°45' E 004°17'.

Length 250 m; draft 9 m.

Type: Ship. MMSI: 636012813.

Date/timePositionNaut miles runAvg speedWind from/ knotsBaromVisibWave heightAir tempDewpointWater temp
2016-Jun-21 22:32N 58°45' E 004°17'26211.9
2016-Jun-21 00:32N 54°24' E 004°52'148 8.6
2016-Jun-20 07:18N 52°04' E 003°29'1013.2
2016-Jun-20 06:33N 52°05' E 003°45'10 9.9
2016-Jun-20 05:33N 52°01' E 003°60'4 3.9
2016-Jun-20 04:31N 51°58' E 004°04'0 0.0
2016-Jun-20 03:31N 51°58' E 004°04'0 0.0
2016-Jun-20 02:31N 51°58' E 004°04'0 0.0
2016-Jun-20 01:31N 51°58' E 004°04'0 0.0
2016-Jun-20 00:31N 51°58' E 004°04'0 0.0
2016-Jun-19 23:31N 51°58' E 004°04'0 0.0
2016-Jun-19 22:34N 51°58' E 004°04'0 0.0
2016-Jun-19 21:31N 51°58' E 004°04'0 0.0
2016-Jun-19 20:34N 51°58' E 004°04'0 0.0
2016-Jun-19 19:31N 51°58' E 004°04'0 0.0
2016-Jun-19 18:34N 51°58' E 004°04'0 0.0
2016-Jun-19 17:31N 51°58' E 004°04'0 0.0
2016-Jun-19 16:31N 51°58' E 004°04'0 0.0
2016-Jun-19 15:31N 51°58' E 004°04'0 0.0
2016-Jun-19 14:34N 51°58' E 004°04'0 0.0
2016-Jun-19 13:31N 51°58' E 004°04'0 0.0
2016-Jun-19 12:34N 51°58' E 004°04'0 0.0
2016-Jun-19 11:31N 51°58' E 004°04'0 0.0
2016-Jun-19 10:31N 51°58' E 004°04'0 0.0
2016-Jun-19 09:31N 51°58' E 004°04'0 0.0
2016-Jun-19 08:31N 51°58' E 004°04'0 0.0
2016-Jun-19 07:34N 51°58' E 004°04'0 0.0
2016-Jun-19 06:31N 51°58' E 004°04'0 0.0
2016-Jun-19 05:34N 51°58' E 004°04'0 0.0
2016-Jun-19 04:34N 51°58' E 004°04'0 0.0
2016-Jun-19 03:31N 51°58' E 004°04'1 0.6
2016-Jun-19 02:34N 51°58' E 004°05'6 5.9
2016-Jun-19 01:33N 52°00' E 003°56'8 7.7
2016-Jun-19 00:33N 52°03' E 003°44'6 2.9
2016-Jun-18 22:27N 52°08' E 003°38'0 0.0
2016-Jun-18 15:30N 52°08' E 003°39'0 0.0
2016-Jun-18 12:30N 52°08' E 003°39'0 0.0
2016-Jun-18 06:06N 52°08' E 003°38'0 0.1
2016-Jun-18 03:06N 52°08' E 003°38'0 0.0
2016-Jun-18 00:18N 52°08' E 003°38'0 0.0
2016-Jun-17 23:30N 52°08' E 003°38'0 0.0
2016-Jun-17 13:30N 52°08' E 003°38'0 0.0
2016-Jun-17 12:09N 52°08' E 003°38'0 0.0
2016-Jun-17 11:15N 52°08' E 003°38'0 0.1
2016-Jun-17 08:12N 52°08' E 003°38'0 0.0
2016-Jun-17 03:06N 52°08' E 003°38'0 0.0
2016-Jun-17 02:24N 52°08' E 003°38'0 0.0
2016-Jun-17 01:30N 52°08' E 003°38'0 0.0
2016-Jun-16 22:24N 52°08' E 003°38'0 0.2
2016-Jun-16 21:24N 52°08' E 003°38'0 0.1
2016-Jun-16 19:18N 52°08' E 003°38'0 0.0
2016-Jun-16 18:30N 52°08' E 003°38'0 0.0
2016-Jun-16 17:33N 52°08' E 003°38'0 0.1
2016-Jun-16 14:33N 52°08' E 003°38'0 0.0
2016-Jun-16 13:30N 52°08' E 003°38'0 0.0
2016-Jun-16 12:18N 52°08' E 003°38'0 0.0
2016-Jun-16 11:33N 52°08' E 003°38'0 0.0
2016-Jun-16 10:24N 52°08' E 003°38'0 0.1
2016-Jun-16 08:24N 52°08' E 003°38'0 0.0
2016-Jun-16 07:30N 52°08' E 003°38'0 0.0
2016-Jun-16 04:33N 52°08' E 003°38'0 0.2
2016-Jun-16 03:12N 52°08' E 003°39'0 0.1
2016-Jun-16 02:33N 52°08' E 003°38'0 0.0
2016-Jun-16 01:16N 52°08' E 003°38'0 0.0
2016-Jun-16 00:31N 52°08' E 003°38'0 0.0
2016-Jun-15 22:24N 52°08' E 003°38'0 0.0
2016-Jun-15 21:27N 52°08' E 003°38'0 0.1
2016-Jun-15 18:27N 52°08' E 003°38'0 0.1
2016-Jun-15 15:18N 52°08' E 003°39'0 0.1
2016-Jun-15 13:12N 52°08' E 003°38'0 0.0
2016-Jun-15 12:33N 52°08' E 003°38'0 0.0
2016-Jun-15 10:03N 52°08' E 003°38'0 0.0
2016-Jun-15 09:33N 52°08' E 003°38'0 0.0
2016-Jun-15 03:24N 52°08' E 003°39'0 0.1
2016-Jun-15 02:21N 52°08' E 003°39'0 0.0
2016-Jun-15 01:06N 52°08' E 003°39'0 0.0
2016-Jun-15 00:21N 52°08' E 003°39'0 0.0
2016-Jun-14 23:27N 52°08' E 003°39'0 0.0
2016-Jun-14 22:15N 52°08' E 003°39'0 0.0
2016-Jun-14 21:30N 52°08' E 003°39'0 0.0
2016-Jun-14 19:27N 52°08' E 003°39'0 0.0
2016-Jun-14 18:33N 52°08' E 003°39'0 0.1
2016-Jun-14 16:24N 52°08' E 003°38'0 0.0
2016-Jun-13 23:33N 52°08' E 003°38'0 0.0
2016-Jun-13 15:33N 52°08' E 003°38'0 0.0
2016-Jun-12 16:27N 52°08' E 003°38'0 0.1
2016-Jun-12 11:18N 52°08' E 003°38'0 0.0
2016-Jun-12 10:33N 52°08' E 003°38'0 0.0
2016-Jun-12 09:30N 52°08' E 003°38'0 0.0
2016-Jun-12 08:33N 52°08' E 003°38'0 0.0
2016-Jun-12 07:24N 52°08' E 003°38'0 0.0
2016-Jun-12 06:24N 52°08' E 003°38'0 0.2
2016-Jun-12 04:33N 52°08' E 003°38'2 1.7
2016-Jun-12 03:33N 52°07' E 003°36'  

Dump ship's entire track history